Time,TemperatureF,DewpointF,PressureIn,WindDirection,WindDirectionDegrees,WindSpeedMPH,WindSpeedGustMPH,Humidity,HourlyPrecipIn,Conditions,Clouds,dailyrainin,SolarRadiationWatts/m^2,SoftwareType,DateUTC
2013-03-24 00:22:00,2.0,-3.0,-100.00,West,277,2.0,13.0,78,0.00,,,0.01,0.000000,,2013-03-24 06:22:00,
2013-03-24 00:32:00,2.0,-3.0,-100.00,West,277,2.0,13.0,78,0.00,,,0.01,0.000000,,2013-03-24 06:32:00,
2013-03-24 00:42:00,2.0,-3.0,-100.00,West,277,2.0,13.0,78,0.00,,,0.01,0.000000,,2013-03-24 06:42:00,
2013-03-24 00:52:00,2.0,-3.0,-100.00,West,277,2.0,13.0,78,0.00,,,0.01,0.000000,,2013-03-24 06:52:00,
2013-03-24 01:22:00,1.0,-4.0,-100.00,WNW,290,1.0,5.0,78,0.00,,,0.01,0.000000,,2013-03-24 07:22:00,
2013-03-24 01:32:00,1.0,-4.0,-100.00,WNW,290,1.0,5.0,78,0.00,,,0.01,0.000000,,2013-03-24 07:32:00,
2013-03-24 01:42:00,1.0,-4.0,-100.00,WNW,290,1.0,5.0,78,0.00,,,0.01,0.000000,,2013-03-24 07:42:00,
2013-03-24 01:52:00,1.0,-4.0,-100.00,WNW,290,1.0,5.0,78,0.00,,,0.01,0.000000,,2013-03-24 07:52:00,
2013-03-24 02:22:00,2.0,-4.0,-100.00,West,259,1.0,2.0,77,0.00,,,0.01,0.000000,,2013-03-24 08:22:00,
2013-03-24 02:32:00,2.0,-4.0,-100.00,West,259,1.0,2.0,77,0.00,,,0.01,0.000000,,2013-03-24 08:32:00,
2013-03-24 02:42:00,2.0,-4.0,-100.00,West,259,1.0,2.0,77,0.00,,,0.01,0.000000,,2013-03-24 08:42:00,
2013-03-24 02:52:00,2.0,-4.0,-100.00,West,259,1.0,2.0,77,0.00,,,0.01,0.000000,,2013-03-24 08:52:00,
2013-03-24 03:22:00,3.0,-2.0,-100.00,NW,313,3.0,4.0,78,0.00,,,0.01,0.000000,,2013-03-24 09:22:00,
2013-03-24 03:33:00,3.0,-2.0,-100.00,NW,313,3.0,4.0,78,0.00,,,0.01,0.000000,,2013-03-24 09:33:00,
2013-03-24 03:42:00,3.0,-2.0,-100.00,NW,313,3.0,4.0,78,0.00,,,0.01,0.000000,,2013-03-24 09:42:00,
2013-03-24 03:52:00,3.0,-2.0,-100.00,NW,313,3.0,4.0,78,0.00,,,0.01,0.000000,,2013-03-24 09:52:00,
2013-03-24 04:22:00,2.0,-3.0,-100.00,NW,316,3.0,3.0,79,0.00,,,0.01,0.000000,,2013-03-24 10:22:00,
2013-03-24 04:32:00,2.0,-3.0,-100.00,NW,316,3.0,3.0,79,0.00,,,0.01,0.000000,,2013-03-24 10:32:00,
2013-03-24 04:42:00,2.0,-3.0,-100.00,NW,316,3.0,3.0,79,0.00,,,0.01,0.000000,,2013-03-24 10:42:00,
2013-03-24 04:52:00,2.0,-3.0,-100.00,NW,316,3.0,3.0,79,0.00,,,0.01,0.000000,,2013-03-24 10:52:00,
2013-03-24 05:22:00,0.0,-5.0,-100.00,NW,306,3.0,4.0,78,0.00,,,0.01,0.000000,,2013-03-24 11:22:00,
2013-03-24 05:32:00,0.0,-5.0,-100.00,NW,306,3.0,4.0,78,0.00,,,0.01,0.000000,,2013-03-24 11:32:00,
2013-03-24 05:42:00,0.0,-5.0,-100.00,NW,306,3.0,4.0,78,0.00,,,0.01,0.000000,,2013-03-24 11:42:00,
2013-03-24 05:51:00,0.0,-5.0,-100.00,NW,306,3.0,4.0,78,0.00,,,0.01,0.000000,,2013-03-24 11:51:00,
2013-03-24 06:22:00,2.0,-3.0,-100.00,NW,325,2.0,8.0,79,0.00,,,0.01,0.000000,,2013-03-24 12:22:00,
2013-03-24 06:32:00,2.0,-3.0,-100.00,NW,325,2.0,8.0,79,0.00,,,0.01,0.000000,,2013-03-24 12:32:00,
2013-03-24 06:42:00,2.0,-3.0,-100.00,NW,325,2.0,8.0,79,0.00,,,0.01,0.000000,,2013-03-24 12:42:00,
2013-03-24 06:52:00,2.0,-3.0,-100.00,NW,325,2.0,8.0,79,0.00,,,0.01,0.000000,,2013-03-24 12:52:00,
2013-03-24 07:22:00,2.0,-3.0,-100.00,NW,320,3.0,6.0,79,0.00,,,0.01,0.000000,,2013-03-24 13:22:00,
2013-03-24 07:32:00,2.0,-3.0,-100.00,NW,320,3.0,6.0,79,0.00,,,0.01,0.000000,,2013-03-24 13:32:00,
2013-03-24 07:42:00,2.0,-3.0,-100.00,NW,320,3.0,6.0,79,0.00,,,0.01,0.000000,,2013-03-24 13:42:00,
2013-03-24 07:52:00,2.0,-3.0,-100.00,NW,320,3.0,6.0,79,0.00,,,0.01,0.000000,,2013-03-24 13:52:00,
2013-03-24 08:22:00,4.0,-1.0,-100.00,North,354,2.0,6.0,78,0.00,,,0.01,20.000000,,2013-03-24 14:22:00,
2013-03-24 08:32:00,4.0,-1.0,-100.00,North,354,2.0,6.0,78,0.00,,,0.01,20.000000,,2013-03-24 14:32:00,
2013-03-24 08:42:00,4.0,-1.0,-100.00,North,354,2.0,6.0,78,0.00,,,0.01,20.000000,,2013-03-24 14:42:00,
2013-03-24 08:52:00,4.0,-1.0,-100.00,North,354,2.0,6.0,78,0.00,,,0.01,20.000000,,2013-03-24 14:52:00,
2013-03-24 09:22:00,10.0,2.0,-100.00,NNW,330,3.0,6.0,69,0.00,,,0.01,145.000000,,2013-03-24 15:22:00,
2013-03-24 09:33:00,10.0,2.0,-100.00,NNW,330,3.0,6.0,69,0.00,,,0.01,145.000000,,2013-03-24 15:33:00,
2013-03-24 09:43:00,10.0,2.0,-100.00,NNW,330,3.0,6.0,69,0.00,,,0.01,145.000000,,2013-03-24 15:43:00,
2013-03-24 09:52:00,10.0,2.0,-100.00,NNW,330,3.0,6.0,69,0.00,,,0.01,145.000000,,2013-03-24 15:52:00,
2013-03-24 10:22:00,9.0,1.0,-100.00,WNW,301,8.0,14.0,69,0.00,,,0.01,299.000000,,2013-03-24 16:22:00,
2013-03-24 10:32:00,9.0,1.0,-100.00,WNW,301,8.0,14.0,69,0.00,,,0.01,299.000000,,2013-03-24 16:32:00,
2013-03-24 10:42:00,9.0,1.0,-100.00,WNW,301,8.0,14.0,69,0.00,,,0.01,299.000000,,2013-03-24 16:42:00,
2013-03-24 10:52:00,9.0,1.0,-100.00,WNW,301,8.0,14.0,69,0.00,,,0.01,299.000000,,2013-03-24 16:52:00,
2013-03-24 11:22:00,11.0,2.0,-100.00,NNW,327,7.0,16.0,65,0.00,,,0.01,367.000000,,2013-03-24 17:22:00,
2013-03-24 11:32:00,11.0,2.0,-100.00,NNW,327,7.0,16.0,65,0.00,,,0.01,367.000000,,2013-03-24 17:32:00,
2013-03-24 11:42:00,11.0,2.0,-100.00,NNW,327,7.0,16.0,65,0.00,,,0.01,367.000000,,2013-03-24 17:42:00,
2013-03-24 11:52:00,11.0,2.0,-100.00,NNW,327,7.0,16.0,65,0.00,,,0.01,367.000000,,2013-03-24 17:52:00,
2013-03-24 12:22:00,15.0,3.0,-100.00,NNW,339,9.0,17.0,58,0.00,,,0.01,742.000000,,2013-03-24 18:22:00,
2013-03-24 12:32:00,15.0,3.0,-100.00,NNW,339,9.0,17.0,58,0.00,,,0.01,742.000000,,2013-03-24 18:32:00,
2013-03-24 12:42:00,15.0,3.0,-100.00,NNW,339,9.0,17.0,58,0.00,,,0.01,742.000000,,2013-03-24 18:42:00,
2013-03-24 12:52:00,15.0,3.0,-100.00,NNW,339,9.0,17.0,58,0.00,,,0.01,742.000000,,2013-03-24 18:52:00,
2013-03-24 13:22:00,13.0,0.0,-100.00,North,2,11.0,18.0,55,0.01,,,0.02,901.000000,,2013-03-24 19:22:00,
2013-03-24 13:32:00,13.0,0.0,-100.00,North,2,11.0,18.0,55,0.01,,,0.02,901.000000,,2013-03-24 19:32:00,
2013-03-24 13:42:00,13.0,0.0,-100.00,North,2,11.0,18.0,55,0.01,,,0.02,901.000000,,2013-03-24 19:42:00,
2013-03-24 13:52:00,13.0,0.0,-100.00,North,2,11.0,18.0,55,0.01,,,0.02,901.000000,,2013-03-24 19:52:00,
2013-03-24 14:22:00,15.0,-3.0,-100.00,WNW,298,11.0,19.0,43,0.00,,,0.01,705.000000,,2013-03-24 20:22:00,
2013-03-24 14:32:00,15.0,-3.0,-100.00,WNW,298,11.0,19.0,43,0.00,,,0.01,705.000000,,2013-03-24 20:32:00,
2013-03-24 14:42:00,15.0,-3.0,-100.00,WNW,298,11.0,19.0,43,0.00,,,0.01,705.000000,,2013-03-24 20:42:00,
2013-03-24 14:52:00,15.0,-3.0,-100.00,WNW,298,11.0,19.0,43,0.00,,,0.01,705.000000,,2013-03-24 20:52:00,
2013-03-24 15:22:00,14.0,-2.0,-100.00,North,351,10.0,22.0,47,0.00,,,0.01,686.000000,,2013-03-24 21:22:00,
2013-03-24 15:33:00,14.0,-2.0,-100.00,North,351,10.0,22.0,47,0.00,,,0.01,686.000000,,2013-03-24 21:33:00,
2013-03-24 15:43:00,14.0,-2.0,-100.00,North,351,10.0,22.0,47,0.00,,,0.01,686.000000,,2013-03-24 21:43:00,
2013-03-24 15:52:00,14.0,-2.0,-100.00,North,351,10.0,22.0,47,0.00,,,0.01,686.000000,,2013-03-24 21:52:00,
2013-03-24 16:22:00,11.0,3.0,-100.00,North,360,10.0,23.0,69,0.00,,,0.01,461.000000,,2013-03-24 22:22:00,
2013-03-24 16:33:00,11.0,3.0,-100.00,North,360,10.0,23.0,69,0.00,,,0.01,461.000000,,2013-03-24 22:33:00,
2013-03-24 16:42:00,11.0,3.0,-100.00,North,360,10.0,23.0,69,0.00,,,0.01,461.000000,,2013-03-24 22:42:00,
2013-03-24 16:52:00,11.0,3.0,-100.00,North,360,10.0,23.0,69,0.00,,,0.01,461.000000,,2013-03-24 22:52:00,
2013-03-24 17:22:00,13.0,2.0,-100.00,NNW,334,8.0,21.0,60,0.00,,,0.01,450.000000,,2013-03-24 23:22:00,
2013-03-24 17:32:00,13.0,2.0,-100.00,NNW,334,8.0,21.0,60,0.00,,,0.01,450.000000,,2013-03-24 23:32:00,
2013-03-24 17:42:00,13.0,2.0,-100.00,NNW,334,8.0,21.0,60,0.00,,,0.01,450.000000,,2013-03-24 23:42:00,
2013-03-24 17:52:00,13.0,2.0,-100.00,NNW,334,8.0,21.0,60,0.00,,,0.01,450.000000,,2013-03-24 23:52:00,
2013-03-24 18:22:00,11.0,1.0,-100.00,North,358,9.0,19.0,62,0.00,,,0.01,314.000000,,2013-03-25 00:22:00,
2013-03-24 18:32:00,11.0,1.0,-100.00,North,358,9.0,19.0,62,0.00,,,0.01,314.000000,,2013-03-25 00:32:00,
2013-03-24 18:42:00,11.0,1.0,-100.00,North,358,9.0,19.0,62,0.00,,,0.01,314.000000,,2013-03-25 00:42:00,
2013-03-24 18:52:00,11.0,1.0,-100.00,North,358,9.0,19.0,62,0.00,,,0.01,314.000000,,2013-03-25 00:52:00,
2013-03-24 19:22:00,9.0,2.0,-100.00,North,10,7.0,16.0,72,0.00,,,0.01,154.000000,,2013-03-25 01:22:00,
2013-03-24 19:32:00,9.0,2.0,-100.00,North,10,7.0,16.0,72,0.00,,,0.01,154.000000,,2013-03-25 01:32:00,
2013-03-24 19:42:00,9.0,2.0,-100.00,North,10,7.0,16.0,72,0.00,,,0.01,154.000000,,2013-03-25 01:42:00,
2013-03-24 19:52:00,9.0,2.0,-100.00,North,10,7.0,16.0,72,0.00,,,0.01,154.000000,,2013-03-25 01:52:00,
2013-03-24 20:22:00,4.0,-2.0,-100.00,NNE,19,7.0,10.0,77,0.00,,,0.01,20.000000,,2013-03-25 02:22:00,
2013-03-24 20:32:00,4.0,-2.0,-100.00,NNE,19,7.0,10.0,77,0.00,,,0.01,20.000000,,2013-03-25 02:32:00,
2013-03-24 20:42:00,4.0,-2.0,-100.00,NNE,19,7.0,10.0,77,0.00,,,0.01,20.000000,,2013-03-25 02:42:00,
2013-03-24 20:51:00,4.0,-2.0,-100.00,NNE,19,7.0,10.0,77,0.00,,,0.01,20.000000,,2013-03-25 02:51:00,
2013-03-24 21:22:00,4.0,-2.0,-100.00,NNE,25,7.0,9.0,75,0.00,,,0.01,0.000000,,2013-03-25 03:22:00,
2013-03-24 21:33:00,4.0,-2.0,-100.00,NNE,25,7.0,9.0,75,0.00,,,0.01,0.000000,,2013-03-25 03:33:00,
2013-03-24 21:42:00,4.0,-2.0,-100.00,NNE,25,7.0,9.0,75,0.00,,,0.01,0.000000,,2013-03-25 03:42:00,
2013-03-24 21:52:00,4.0,-2.0,-100.00,NNE,25,7.0,9.0,75,0.00,,,0.01,0.000000,,2013-03-25 03:52:00,
2013-03-24 22:22:00,3.0,-5.0,-100.00,NNE,16,5.0,8.0,70,0.00,,,0.01,0.000000,,2013-03-25 04:22:00,
2013-03-24 22:32:00,3.0,-5.0,-100.00,NNE,16,5.0,8.0,70,0.00,,,0.01,0.000000,,2013-03-25 04:32:00,
2013-03-24 22:42:00,3.0,-5.0,-100.00,NNE,16,5.0,8.0,70,0.00,,,0.01,0.000000,,2013-03-25 04:42:00,
2013-03-24 22:52:00,3.0,-5.0,-100.00,NNE,16,5.0,8.0,70,0.00,,,0.01,0.000000,,2013-03-25 04:52:00,
2013-03-24 23:22:00,3.0,-4.0,-100.00,North,10,4.0,8.0,71,0.00,,,0.01,0.000000,,2013-03-25 05:22:00,
2013-03-24 23:32:00,3.0,-4.0,-100.00,North,10,4.0,8.0,71,0.00,,,0.01,0.000000,,2013-03-25 05:32:00,
2013-03-24 23:42:00,3.0,-4.0,-100.00,North,10,4.0,8.0,71,0.00,,,0.01,0.000000,,2013-03-25 05:42:00,
2013-03-24 23:52:00,3.0,-4.0,-100.00,North,10,4.0,8.0,71,0.00,,,0.01,0.000000,,2013-03-25 05:52:00,